sensor_id;sensor_type;location;lat;lon;timestamp;pressure;altitude;pressure_sealevel;temperature
18704;BMP180;9481;48.796;9.210;2022-11-20T00:01:18;95997.00;;;13.60
18704;BMP180;9481;48.796;9.210;2022-11-20T00:03:45;95991.00;;;13.50
18704;BMP180;9481;48.796;9.210;2022-11-20T00:06:15;96005.00;;;13.50
18704;BMP180;9481;48.796;9.210;2022-11-20T00:08:42;96011.00;;;13.50
18704;BMP180;9481;48.796;9.210;2022-11-20T00:11:17;96007.00;;;13.50
18704;BMP180;9481;48.796;9.210;2022-11-20T00:13:45;96013.00;;;13.50
18704;BMP180;9481;48.796;9.210;2022-11-20T00:16:14;96004.00;;;13.50
18704;BMP180;9481;48.796;9.210;2022-11-20T00:18:40;96001.00;;;13.50
18704;BMP180;9481;48.796;9.210;2022-11-20T00:21:13;96014.00;;;13.40
18704;BMP180;9481;48.796;9.210;2022-11-20T00:23:39;96021.00;;;13.50
18704;BMP180;9481;48.796;9.210;2022-11-20T00:26:08;96002.00;;;13.40
18704;BMP180;9481;48.796;9.210;2022-11-20T00:28:34;96006.00;;;13.40
18704;BMP180;9481;48.796;9.210;2022-11-20T00:31:07;96011.00;;;13.40
18704;BMP180;9481;48.796;9.210;2022-11-20T00:33:34;96006.00;;;13.40
18704;BMP180;9481;48.796;9.210;2022-11-20T00:36:05;96001.00;;;13.40
18704;BMP180;9481;48.796;9.210;2022-11-20T00:38:32;96000.00;;;13.40
18704;BMP180;9481;48.796;9.210;2022-11-20T00:41:00;96006.00;;;13.40
18704;BMP180;9481;48.796;9.210;2022-11-20T00:43:27;95991.00;;;13.40
18704;BMP180;9481;48.796;9.210;2022-11-20T00:46:04;96004.00;;;13.40
18704;BMP180;9481;48.796;9.210;2022-11-20T00:48:31;96003.00;;;13.40
18704;BMP180;9481;48.796;9.210;2022-11-20T00:50:57;96017.00;;;13.40
18704;BMP180;9481;48.796;9.210;2022-11-20T00:53:23;96014.00;;;13.40
18704;BMP180;9481;48.796;9.210;2022-11-20T00:56:07;96016.00;;;13.40
18704;BMP180;9481;48.796;9.210;2022-11-20T00:58:38;96014.00;;;13.40
18704;BMP180;9481;48.796;9.210;2022-11-20T01:01:08;96022.00;;;13.40
18704;BMP180;9481;48.796;9.210;2022-11-20T01:03:37;96012.00;;;13.30
18704;BMP180;9481;48.796;9.210;2022-11-20T01:06:06;96007.00;;;13.30
18704;BMP180;9481;48.796;9.210;2022-11-20T01:08:34;96020.00;;;13.30
18704;BMP180;9481;48.796;9.210;2022-11-20T01:11:07;96013.00;;;13.30
18704;BMP180;9481;48.796;9.210;2022-11-20T01:13:35;96015.00;;;13.30
18704;BMP180;9481;48.796;9.210;2022-11-20T01:16:10;96019.00;;;13.30
18704;BMP180;9481;48.796;9.210;2022-11-20T01:18:38;96023.00;;;13.30
18704;BMP180;9481;48.796;9.210;2022-11-20T01:21:14;96012.00;;;13.30
18704;BMP180;9481;48.796;9.210;2022-11-20T01:23:42;96035.00;;;13.30
18704;BMP180;9481;48.796;9.210;2022-11-20T01:26:12;96029.00;;;13.30
18704;BMP180;9481;48.796;9.210;2022-11-20T01:28:40;96029.00;;;13.30
18704;BMP180;9481;48.796;9.210;2022-11-20T01:33:39;96034.00;;;13.30
18704;BMP180;9481;48.796;9.210;2022-11-20T01:36:06;96028.00;;;13.20
18704;BMP180;9481;48.796;9.210;2022-11-20T01:38:32;96037.00;;;13.20
18704;BMP180;9481;48.796;9.210;2022-11-20T01:40:58;96026.00;;;13.20
18704;BMP180;9481;48.796;9.210;2022-11-20T01:43:25;96028.00;;;13.20
18704;BMP180;9481;48.796;9.210;2022-11-20T01:46:17;96019.00;;;13.10
18704;BMP180;9481;48.796;9.210;2022-11-20T01:48:54;96014.00;;;13.10
18704;BMP180;9481;48.796;9.210;2022-11-20T01:51:32;96017.00;;;13.00
18704;BMP180;9481;48.796;9.210;2022-11-20T01:54:03;96005.00;;;13.00
18704;BMP180;9481;48.796;9.210;2022-11-20T01:56:36;96012.00;;;12.90
18704;BMP180;9481;48.796;9.210;2022-11-20T01:59:05;96008.00;;;12.90
18704;BMP180;9481;48.796;9.210;2022-11-20T02:01:32;96022.00;;;12.90
18704;BMP180;9481;48.796;9.210;2022-11-20T02:03:59;96011.00;;;12.90
18704;BMP180;9481;48.796;9.210;2022-11-20T02:06:33;96018.00;;;12.90
18704;BMP180;9481;48.796;9.210;2022-11-20T02:09:00;96010.00;;;12.90
18704;BMP180;9481;48.796;9.210;2022-11-20T02:11:25;96011.00;;;12.90
18704;BMP180;9481;48.796;9.210;2022-11-20T02:13:52;96011.00;;;12.80
18704;BMP180;9481;48.796;9.210;2022-11-20T02:16:47;96032.00;;;12.80
18704;BMP180;9481;48.796;9.210;2022-11-20T02:19:28;96031.00;;;12.80
18704;BMP180;9481;48.796;9.210;2022-11-20T02:22:05;96025.00;;;12.80
18704;BMP180;9481;48.796;9.210;2022-11-20T02:24:34;96026.00;;;12.80
18704;BMP180;9481;48.796;9.210;2022-11-20T02:27:10;96027.00;;;12.80
18704;BMP180;9481;48.796;9.210;2022-11-20T02:29:53;96029.00;;;12.80
18704;BMP180;9481;48.796;9.210;2022-11-20T02:32:32;96031.00;;;12.80
18704;BMP180;9481;48.796;9.210;2022-11-20T02:35:06;96018.00;;;12.80
18704;BMP180;9481;48.796;9.210;2022-11-20T02:37:36;96009.00;;;12.80
18704;BMP180;9481;48.796;9.210;2022-11-20T02:40:03;96028.00;;;12.80
18704;BMP180;9481;48.796;9.210;2022-11-20T02:42:29;96027.00;;;12.80
18704;BMP180;9481;48.796;9.210;2022-11-20T02:44:55;96029.00;;;12.80
18704;BMP180;9481;48.796;9.210;2022-11-20T02:47:20;96019.00;;;12.80
18704;BMP180;9481;48.796;9.210;2022-11-20T02:49:46;96025.00;;;12.80
18704;BMP180;9481;48.796;9.210;2022-11-20T02:52:12;96032.00;;;12.70
18704;BMP180;9481;48.796;9.210;2022-11-20T02:54:37;96024.00;;;12.70
18704;BMP180;9481;48.796;9.210;2022-11-20T02:57:03;96024.00;;;12.70
18704;BMP180;9481;48.796;9.210;2022-11-20T02:59:29;96023.00;;;12.70
18704;BMP180;9481;48.796;9.210;2022-11-20T03:01:54;96033.00;;;12.70
18704;BMP180;9481;48.796;9.210;2022-11-20T03:04:20;96047.00;;;12.70
18704;BMP180;9481;48.796;9.210;2022-11-20T03:06:45;96027.00;;;12.70
18704;BMP180;9481;48.796;9.210;2022-11-20T03:09:12;96039.00;;;12.70
18704;BMP180;9481;48.796;9.210;2022-11-20T03:11:37;96026.00;;;12.70
18704;BMP180;9481;48.796;9.210;2022-11-20T03:14:05;96029.00;;;12.70
18704;BMP180;9481;48.796;9.210;2022-11-20T03:16:32;96037.00;;;12.70
18704;BMP180;9481;48.796;9.210;2022-11-20T03:18:58;96029.00;;;12.70
18704;BMP180;9481;48.796;9.210;2022-11-20T03:21:24;96024.00;;;12.70
18704;BMP180;9481;48.796;9.210;2022-11-20T03:23:50;96030.00;;;12.70
18704;BMP180;9481;48.796;9.210;2022-11-20T03:26:19;96010.00;;;12.80
18704;BMP180;9481;48.796;9.210;2022-11-20T03:28:51;96016.00;;;12.70
18704;BMP180;9481;48.796;9.210;2022-11-20T03:31:21;96012.00;;;12.80
18704;BMP180;9481;48.796;9.210;2022-11-20T03:33:48;96006.00;;;12.80
18704;BMP180;9481;48.796;9.210;2022-11-20T03:36:16;96023.00;;;12.70
18704;BMP180;9481;48.796;9.210;2022-11-20T03:38:43;96017.00;;;12.80
18704;BMP180;9481;48.796;9.210;2022-11-20T03:41:13;96022.00;;;12.70
18704;BMP180;9481;48.796;9.210;2022-11-20T03:43:40;96015.00;;;12.80
18704;BMP180;9481;48.796;9.210;2022-11-20T03:46:07;96024.00;;;12.80
18704;BMP180;9481;48.796;9.210;2022-11-20T03:48:33;96018.00;;;12.80
18704;BMP180;9481;48.796;9.210;2022-11-20T03:51:24;96016.00;;;12.70
18704;BMP180;9481;48.796;9.210;2022-11-20T03:53:53;96008.00;;;12.70
18704;BMP180;9481;48.796;9.210;2022-11-20T03:56:22;96010.00;;;12.70
18704;BMP180;9481;48.796;9.210;2022-11-20T03:58:49;96018.00;;;12.60
18704;BMP180;9481;48.796;9.210;2022-11-20T04:01:35;96006.00;;;12.60
18704;BMP180;9481;48.796;9.210;2022-11-20T04:04:03;96005.00;;;12.60
18704;BMP180;9481;48.796;9.210;2022-11-20T04:06:36;96018.00;;;12.50
18704;BMP180;9481;48.796;9.210;2022-11-20T04:09:03;96007.00;;;12.50
18704;BMP180;9481;48.796;9.210;2022-11-20T04:11:32;96018.00;;;12.50
18704;BMP180;9481;48.796;9.210;2022-11-20T04:14:02;96015.00;;;12.50
18704;BMP180;9481;48.796;9.210;2022-11-20T04:16:34;95995.00;;;12.40
18704;BMP180;9481;48.796;9.210;2022-11-20T04:19:04;95997.00;;;12.40
18704;BMP180;9481;48.796;9.210;2022-11-20T04:21:30;96002.00;;;12.40
18704;BMP180;9481;48.796;9.210;2022-11-20T04:23:56;95998.00;;;12.40
18704;BMP180;9481;48.796;9.210;2022-11-20T04:26:26;96012.00;;;12.30
18704;BMP180;9481;48.796;9.210;2022-11-20T04:28:52;96002.00;;;12.30
18704;BMP180;9481;48.796;9.210;2022-11-20T04:31:25;96001.00;;;12.30
18704;BMP180;9481;48.796;9.210;2022-11-20T04:33:52;95989.00;;;12.30
18704;BMP180;9481;48.796;9.210;2022-11-20T04:36:24;95997.00;;;12.30
18704;BMP180;9481;48.796;9.210;2022-11-20T04:38:52;96001.00;;;12.30
18704;BMP180;9481;48.796;9.210;2022-11-20T04:41:22;95995.00;;;12.30
18704;BMP180;9481;48.796;9.210;2022-11-20T04:43:54;95995.00;;;12.20
18704;BMP180;9481;48.796;9.210;2022-11-20T04:46:25;96003.00;;;12.20
18704;BMP180;9481;48.796;9.210;2022-11-20T04:48:51;96001.00;;;12.20
18704;BMP180;9481;48.796;9.210;2022-11-20T04:51:17;95993.00;;;12.20
18704;BMP180;9481;48.796;9.210;2022-11-20T04:53:42;95997.00;;;12.20
18704;BMP180;9481;48.796;9.210;2022-11-20T04:56:11;95989.00;;;12.20
18704;BMP180;9481;48.796;9.210;2022-11-20T04:58:38;95999.00;;;12.20
18704;BMP180;9481;48.796;9.210;2022-11-20T05:01:12;95991.00;;;12.20
18704;BMP180;9481;48.796;9.210;2022-11-20T05:03:43;95984.00;;;12.20
18704;BMP180;9481;48.796;9.210;2022-11-20T05:06:14;95991.00;;;12.20
18704;BMP180;9481;48.796;9.210;2022-11-20T05:08:41;95991.00;;;12.20
18704;BMP180;9481;48.796;9.210;2022-11-20T05:11:10;95988.00;;;12.20
18704;BMP180;9481;48.796;9.210;2022-11-20T05:13:37;95982.00;;;12.20
18704;BMP180;9481;48.796;9.210;2022-11-20T05:16:21;95973.00;;;12.10
18704;BMP180;9481;48.796;9.210;2022-11-20T05:18:47;95990.00;;;12.20
18704;BMP180;9481;48.796;9.210;2022-11-20T05:21:14;95998.00;;;12.20
18704;BMP180;9481;48.796;9.210;2022-11-20T05:23:41;95985.00;;;12.20
18704;BMP180;9481;48.796;9.210;2022-11-20T05:26:15;96002.00;;;12.20
18704;BMP180;9481;48.796;9.210;2022-11-20T05:28:41;95985.00;;;12.20
18704;BMP180;9481;48.796;9.210;2022-11-20T05:31:20;95981.00;;;12.20
18704;BMP180;9481;48.796;9.210;2022-11-20T05:33:46;95982.00;;;12.20
18704;BMP180;9481;48.796;9.210;2022-11-20T05:36:14;95984.00;;;12.20
18704;BMP180;9481;48.796;9.210;2022-11-20T05:38:41;95978.00;;;12.20
18704;BMP180;9481;48.796;9.210;2022-11-20T05:41:13;95980.00;;;12.20
18704;BMP180;9481;48.796;9.210;2022-11-20T05:43:42;95971.00;;;12.20
18704;BMP180;9481;48.796;9.210;2022-11-20T05:46:11;95990.00;;;12.20
18704;BMP180;9481;48.796;9.210;2022-11-20T05:48:38;95978.00;;;12.20
18704;BMP180;9481;48.796;9.210;2022-11-20T05:51:06;95986.00;;;12.20
18704;BMP180;9481;48.796;9.210;2022-11-20T05:53:35;95987.00;;;12.20
18704;BMP180;9481;48.796;9.210;2022-11-20T05:56:07;95979.00;;;12.20
18704;BMP180;9481;48.796;9.210;2022-11-20T05:58:36;95987.00;;;12.20
18704;BMP180;9481;48.796;9.210;2022-11-20T06:01:18;96000.00;;;12.20
18704;BMP180;9481;48.796;9.210;2022-11-20T06:03:45;95990.00;;;12.20
18704;BMP180;9481;48.796;9.210;2022-11-20T06:06:14;95997.00;;;12.20
18704;BMP180;9481;48.796;9.210;2022-11-20T06:08:40;96000.00;;;12.20
18704;BMP180;9481;48.796;9.210;2022-11-20T06:11:11;95985.00;;;12.20
18704;BMP180;9481;48.796;9.210;2022-11-20T06:13:38;96001.00;;;12.20
18704;BMP180;9481;48.796;9.210;2022-11-20T06:16:04;95995.00;;;12.30
18704;BMP180;9481;48.796;9.210;2022-11-20T06:18:30;95983.00;;;12.30
18704;BMP180;9481;48.796;9.210;2022-11-20T06:21:08;95995.00;;;12.30
18704;BMP180;9481;48.796;9.210;2022-11-20T06:23:35;95991.00;;;12.30
18704;BMP180;9481;48.796;9.210;2022-11-20T06:26:07;95992.00;;;12.30
18704;BMP180;9481;48.796;9.210;2022-11-20T06:28:34;95985.00;;;12.30
18704;BMP180;9481;48.796;9.210;2022-11-20T06:31:00;95981.00;;;12.30
18704;BMP180;9481;48.796;9.210;2022-11-20T06:33:26;95997.00;;;12.30
18704;BMP180;9481;48.796;9.210;2022-11-20T06:35:52;95995.00;;;12.30
18704;BMP180;9481;48.796;9.210;2022-11-20T06:38:17;95979.00;;;12.30
18704;BMP180;9481;48.796;9.210;2022-11-20T06:40:43;95992.00;;;12.30
18704;BMP180;9481;48.796;9.210;2022-11-20T06:43:10;95990.00;;;12.30
18704;BMP180;9481;48.796;9.210;2022-11-20T06:45:36;95980.00;;;12.30
18704;BMP180;9481;48.796;9.210;2022-11-20T06:48:03;95992.00;;;12.30
18704;BMP180;9481;48.796;9.210;2022-11-20T06:50:29;95991.00;;;12.20
18704;BMP180;9481;48.796;9.210;2022-11-20T06:52:55;95990.00;;;12.20
18704;BMP180;9481;48.796;9.210;2022-11-20T06:55:20;95987.00;;;12.20
18704;BMP180;9481;48.796;9.210;2022-11-20T06:57:46;95992.00;;;12.20
18704;BMP180;9481;48.796;9.210;2022-11-20T07:00:13;95981.00;;;12.20
18704;BMP180;9481;48.796;9.210;2022-11-20T07:02:39;96004.00;;;12.20
18704;BMP180;9481;48.796;9.210;2022-11-20T07:05:05;95995.00;;;12.10
18704;BMP180;9481;48.796;9.210;2022-11-20T07:07:30;95994.00;;;12.10
18704;BMP180;9481;48.796;9.210;2022-11-20T07:09:56;95991.00;;;12.10
18704;BMP180;9481;48.796;9.210;2022-11-20T07:12:22;96009.00;;;12.10
18704;BMP180;9481;48.796;9.210;2022-11-20T07:14:47;96005.00;;;12.10
18704;BMP180;9481;48.796;9.210;2022-11-20T07:17:13;96004.00;;;12.10
18704;BMP180;9481;48.796;9.210;2022-11-20T07:19:38;96002.00;;;12.10
18704;BMP180;9481;48.796;9.210;2022-11-20T07:22:04;95998.00;;;12.10
18704;BMP180;9481;48.796;9.210;2022-11-20T07:24:30;96016.00;;;12.10
18704;BMP180;9481;48.796;9.210;2022-11-20T07:26:55;96003.00;;;12.10
18704;BMP180;9481;48.796;9.210;2022-11-20T07:29:21;96004.00;;;12.00
18704;BMP180;9481;48.796;9.210;2022-11-20T07:31:47;96001.00;;;12.10
18704;BMP180;9481;48.796;9.210;2022-11-20T07:34:12;96015.00;;;12.10
18704;BMP180;9481;48.796;9.210;2022-11-20T07:36:39;96011.00;;;12.10
18704;BMP180;9481;48.796;9.210;2022-11-20T07:39:04;96009.00;;;12.10
18704;BMP180;9481;48.796;9.210;2022-11-20T07:41:30;96011.00;;;12.10
18704;BMP180;9481;48.796;9.210;2022-11-20T07:43:56;96021.00;;;12.10
18704;BMP180;9481;48.796;9.210;2022-11-20T07:46:22;96015.00;;;12.20
18704;BMP180;9481;48.796;9.210;2022-11-20T07:48:47;96018.00;;;12.20
18704;BMP180;9481;48.796;9.210;2022-11-20T07:51:13;96005.00;;;12.20
18704;BMP180;9481;48.796;9.210;2022-11-20T07:53:39;96024.00;;;12.20
18704;BMP180;9481;48.796;9.210;2022-11-20T07:56:05;96023.00;;;12.20
18704;BMP180;9481;48.796;9.210;2022-11-20T07:58:31;96020.00;;;12.30
18704;BMP180;9481;48.796;9.210;2022-11-20T08:01:07;96025.00;;;12.30
18704;BMP180;9481;48.796;9.210;2022-11-20T08:03:34;96023.00;;;12.30
18704;BMP180;9481;48.796;9.210;2022-11-20T08:06:01;96016.00;;;12.40
18704;BMP180;9481;48.796;9.210;2022-11-20T08:08:28;96030.00;;;12.40
18704;BMP180;9481;48.796;9.210;2022-11-20T08:10:54;96029.00;;;12.40
18704;BMP180;9481;48.796;9.210;2022-11-20T08:13:39;96041.00;;;12.40
18704;BMP180;9481;48.796;9.210;2022-11-20T08:16:24;96036.00;;;12.50
18704;BMP180;9481;48.796;9.210;2022-11-20T08:18:50;96037.00;;;12.50
18704;BMP180;9481;48.796;9.210;2022-11-20T08:21:15;96042.00;;;12.50
18704;BMP180;9481;48.796;9.210;2022-11-20T08:23:41;96045.00;;;12.60
18704;BMP180;9481;48.796;9.210;2022-11-20T08:26:06;96027.00;;;12.60
18704;BMP180;9481;48.796;9.210;2022-11-20T08:28:32;96038.00;;;12.60
18704;BMP180;9481;48.796;9.210;2022-11-20T08:31:02;96039.00;;;12.60
18704;BMP180;9481;48.796;9.210;2022-11-20T08:33:28;96043.00;;;12.60
18704;BMP180;9481;48.796;9.210;2022-11-20T08:36:05;96051.00;;;12.60
18704;BMP180;9481;48.796;9.210;2022-11-20T08:38:32;96037.00;;;12.60
18704;BMP180;9481;48.796;9.210;2022-11-20T08:41:03;96034.00;;;12.60
18704;BMP180;9481;48.796;9.210;2022-11-20T08:43:47;96050.00;;;12.60
18704;BMP180;9481;48.796;9.210;2022-11-20T08:46:13;96038.00;;;12.60
18704;BMP180;9481;48.796;9.210;2022-11-20T08:48:39;96034.00;;;12.60
18704;BMP180;9481;48.796;9.210;2022-11-20T08:51:05;96033.00;;;12.70
18704;BMP180;9481;48.796;9.210;2022-11-20T08:53:32;96043.00;;;12.90
18704;BMP180;9481;48.796;9.210;2022-11-20T08:55:58;96045.00;;;13.00
18704;BMP180;9481;48.796;9.210;2022-11-20T08:58:24;96043.00;;;13.20
18704;BMP180;9481;48.796;9.210;2022-11-20T09:00:50;96047.00;;;13.40
18704;BMP180;9481;48.796;9.210;2022-11-20T09:03:16;96048.00;;;13.60
18704;BMP180;9481;48.796;9.210;2022-11-20T09:05:42;96064.00;;;13.80
18704;BMP180;9481;48.796;9.210;2022-11-20T09:08:08;96055.00;;;13.90
18704;BMP180;9481;48.796;9.210;2022-11-20T09:10:34;96044.00;;;14.00
18704;BMP180;9481;48.796;9.210;2022-11-20T09:13:00;96046.00;;;14.00
18704;BMP180;9481;48.796;9.210;2022-11-20T09:15:27;96053.00;;;14.00
18704;BMP180;9481;48.796;9.210;2022-11-20T09:17:58;96061.00;;;14.00
18704;BMP180;9481;48.796;9.210;2022-11-20T09:20:25;96059.00;;;13.90
18704;BMP180;9481;48.796;9.210;2022-11-20T09:22:51;96062.00;;;13.80
18704;BMP180;9481;48.796;9.210;2022-11-20T09:25:17;96057.00;;;13.80
18704;BMP180;9481;48.796;9.210;2022-11-20T09:27:43;96064.00;;;13.80
18704;BMP180;9481;48.796;9.210;2022-11-20T09:30:15;96083.00;;;13.70
18704;BMP180;9481;48.796;9.210;2022-11-20T09:32:43;96073.00;;;13.60
18704;BMP180;9481;48.796;9.210;2022-11-20T09:35:09;96076.00;;;13.60
18704;BMP180;9481;48.796;9.210;2022-11-20T09:37:35;96074.00;;;13.50
18704;BMP180;9481;48.796;9.210;2022-11-20T09:40:01;96064.00;;;13.50
18704;BMP180;9481;48.796;9.210;2022-11-20T09:45:52;96078.00;;;13.30
18704;BMP180;9481;48.796;9.210;2022-11-20T09:54:42;96069.00;;;13.20
18704;BMP180;9481;48.796;9.210;2022-11-20T09:57:18;96078.00;;;13.20
18704;BMP180;9481;48.796;9.210;2022-11-20T09:59:51;96076.00;;;13.20
18704;BMP180;9481;48.796;9.210;2022-11-20T10:02:37;96073.00;;;13.20
18704;BMP180;9481;48.796;9.210;2022-11-20T10:05:18;96076.00;;;13.20
18704;BMP180;9481;48.796;9.210;2022-11-20T10:10:43;96078.00;;;13.10
18704;BMP180;9481;48.796;9.210;2022-11-20T10:19:45;96091.00;;;13.10
18704;BMP180;9481;48.796;9.210;2022-11-20T10:22:25;96087.00;;;13.10
18704;BMP180;9481;48.796;9.210;2022-11-20T10:25:15;96082.00;;;13.10
18704;BMP180;9481;48.796;9.210;2022-11-20T10:30:20;96080.00;;;13.20
18704;BMP180;9481;48.796;9.210;2022-11-20T10:32:54;96081.00;;;13.20
18704;BMP180;9481;48.796;9.210;2022-11-20T10:35:40;96085.00;;;13.20
18704;BMP180;9481;48.796;9.210;2022-11-20T10:38:25;96096.00;;;13.20
18704;BMP180;9481;48.796;9.210;2022-11-20T10:41:01;96101.00;;;13.20
18704;BMP180;9481;48.796;9.210;2022-11-20T10:43:48;96087.00;;;13.10
18704;BMP180;9481;48.796;9.210;2022-11-20T10:46:22;96092.00;;;13.10
18704;BMP180;9481;48.796;9.210;2022-11-20T10:48:50;96096.00;;;13.10
18704;BMP180;9481;48.796;9.210;2022-11-20T10:51:43;96087.00;;;13.10
18704;BMP180;9481;48.796;9.210;2022-11-20T10:54:22;96090.00;;;13.10
18704;BMP180;9481;48.796;9.210;2022-11-20T10:56:57;96082.00;;;13.10
18704;BMP180;9481;48.796;9.210;2022-11-20T11:02:23;96079.00;;;13.20
18704;BMP180;9481;48.796;9.210;2022-11-20T11:04:52;96077.00;;;13.20
18704;BMP180;9481;48.796;9.210;2022-11-20T11:07:39;96087.00;;;13.20
18704;BMP180;9481;48.796;9.210;2022-11-20T11:10:39;96082.00;;;13.20
18704;BMP180;9481;48.796;9.210;2022-11-20T11:13:19;96072.00;;;13.20
18704;BMP180;9481;48.796;9.210;2022-11-20T11:15:45;96074.00;;;13.20
18704;BMP180;9481;48.796;9.210;2022-11-20T11:18:25;96066.00;;;13.20
18704;BMP180;9481;48.796;9.210;2022-11-20T11:20:53;96064.00;;;13.20
18704;BMP180;9481;48.796;9.210;2022-11-20T11:23:36;96065.00;;;13.20
18704;BMP180;9481;48.796;9.210;2022-11-20T11:26:18;96050.00;;;13.30
18704;BMP180;9481;48.796;9.210;2022-11-20T11:29:03;96043.00;;;13.30
18704;BMP180;9481;48.796;9.210;2022-11-20T11:31:34;96037.00;;;13.40
18704;BMP180;9481;48.796;9.210;2022-11-20T11:34:17;96033.00;;;13.60
18704;BMP180;9481;48.796;9.210;2022-11-20T11:36:56;96029.00;;;14.30
18704;BMP180;9481;48.796;9.210;2022-11-20T11:39:23;96035.00;;;15.40
18704;BMP180;9481;48.796;9.210;2022-11-20T11:41:51;96024.00;;;16.60
18704;BMP180;9481;48.796;9.210;2022-11-20T11:44:20;96023.00;;;17.70
18704;BMP180;9481;48.796;9.210;2022-11-20T11:47:22;96018.00;;;18.70
18704;BMP180;9481;48.796;9.210;2022-11-20T11:50:22;96028.00;;;19.40
18704;BMP180;9481;48.796;9.210;2022-11-20T11:53:08;96015.00;;;20.10
18704;BMP180;9481;48.796;9.210;2022-11-20T11:58:49;96021.00;;;21.40
18704;BMP180;9481;48.796;9.210;2022-11-20T12:01:44;96011.00;;;22.30
18704;BMP180;9481;48.796;9.210;2022-11-20T12:04:43;96017.00;;;23.10
18704;BMP180;9481;48.796;9.210;2022-11-20T12:07:39;96006.00;;;23.70
18704;BMP180;9481;48.796;9.210;2022-11-20T12:10:18;96010.00;;;23.80
18704;BMP180;9481;48.796;9.210;2022-11-20T12:12:54;96017.00;;;23.70
18704;BMP180;9481;48.796;9.210;2022-11-20T12:15:32;96016.00;;;23.30
18704;BMP180;9481;48.796;9.210;2022-11-20T12:17:59;96011.00;;;22.80
18704;BMP180;9481;48.796;9.210;2022-11-20T12:20:41;96011.00;;;22.10
18704;BMP180;9481;48.796;9.210;2022-11-20T12:23:50;96016.00;;;21.70
18704;BMP180;9481;48.796;9.210;2022-11-20T12:26:56;96000.00;;;21.50
18704;BMP180;9481;48.796;9.210;2022-11-20T12:38:41;95994.00;;;19.40
18704;BMP180;9481;48.796;9.210;2022-11-20T12:50:08;95991.00;;;20.80
18704;BMP180;9481;48.796;9.210;2022-11-20T12:52:54;96009.00;;;20.60
18704;BMP180;9481;48.796;9.210;2022-11-20T13:01:55;96008.00;;;20.30
18704;BMP180;9481;48.796;9.210;2022-11-20T13:05:00;96008.00;;;21.20
18704;BMP180;9481;48.796;9.210;2022-11-20T13:07:32;95993.00;;;22.20
18704;BMP180;9481;48.796;9.210;2022-11-20T13:09:58;95996.00;;;22.90
18704;BMP180;9481;48.796;9.210;2022-11-20T13:12:34;95995.00;;;23.30
18704;BMP180;9481;48.796;9.210;2022-11-20T13:18:01;96017.00;;;22.40
18704;BMP180;9481;48.796;9.210;2022-11-20T13:20:30;96013.00;;;21.80
18704;BMP180;9481;48.796;9.210;2022-11-20T13:22:58;96015.00;;;21.20
18704;BMP180;9481;48.796;9.210;2022-11-20T13:27:58;96001.00;;;20.10
18704;BMP180;9481;48.796;9.210;2022-11-20T13:30:29;96003.00;;;19.60
18704;BMP180;9481;48.796;9.210;2022-11-20T13:33:09;95997.00;;;19.00
18704;BMP180;9481;48.796;9.210;2022-11-20T13:35:58;95991.00;;;18.60
18704;BMP180;9481;48.796;9.210;2022-11-20T13:38:24;95997.00;;;18.30
18704;BMP180;9481;48.796;9.210;2022-11-20T13:41:00;95973.00;;;17.90
18704;BMP180;9481;48.796;9.210;2022-11-20T13:43:48;95981.00;;;17.70
18704;BMP180;9481;48.796;9.210;2022-11-20T13:46:14;95973.00;;;17.50
18704;BMP180;9481;48.796;9.210;2022-11-20T13:48:43;95964.00;;;17.20
18704;BMP180;9481;48.796;9.210;2022-11-20T13:51:47;95977.00;;;17.00
18704;BMP180;9481;48.796;9.210;2022-11-20T13:54:54;95975.00;;;16.80
18704;BMP180;9481;48.796;9.210;2022-11-20T14:00:28;95973.00;;;16.40
18704;BMP180;9481;48.796;9.210;2022-11-20T14:05:37;95962.00;;;16.10
18704;BMP180;9481;48.796;9.210;2022-11-20T14:08:06;95978.00;;;15.90
18704;BMP180;9481;48.796;9.210;2022-11-20T14:10:32;95958.00;;;15.80
18704;BMP180;9481;48.796;9.210;2022-11-20T14:13:10;95958.00;;;15.70
18704;BMP180;9481;48.796;9.210;2022-11-20T14:15:35;95965.00;;;15.60
18704;BMP180;9481;48.796;9.210;2022-11-20T14:18:20;95954.00;;;15.50
18704;BMP180;9481;48.796;9.210;2022-11-20T14:20:46;95946.00;;;15.50
18704;BMP180;9481;48.796;9.210;2022-11-20T14:23:12;95952.00;;;15.40
18704;BMP180;9481;48.796;9.210;2022-11-20T14:25:43;95964.00;;;15.30
18704;BMP180;9481;48.796;9.210;2022-11-20T14:28:26;95972.00;;;15.20
18704;BMP180;9481;48.796;9.210;2022-11-20T14:30:53;95970.00;;;15.10
18704;BMP180;9481;48.796;9.210;2022-11-20T14:33:19;95979.00;;;15.00
18704;BMP180;9481;48.796;9.210;2022-11-20T14:35:56;95978.00;;;15.00
18704;BMP180;9481;48.796;9.210;2022-11-20T14:38:27;95973.00;;;14.90
18704;BMP180;9481;48.796;9.210;2022-11-20T14:40:53;95956.00;;;14.80
18704;BMP180;9481;48.796;9.210;2022-11-20T14:43:27;95971.00;;;14.80
18704;BMP180;9481;48.796;9.210;2022-11-20T14:46:03;95948.00;;;14.70
18704;BMP180;9481;48.796;9.210;2022-11-20T14:48:47;95950.00;;;14.70
18704;BMP180;9481;48.796;9.210;2022-11-20T14:51:35;95950.00;;;14.70
18704;BMP180;9481;48.796;9.210;2022-11-20T14:54:17;95939.00;;;14.70
18704;BMP180;9481;48.796;9.210;2022-11-20T14:57:01;95929.00;;;14.70
18704;BMP180;9481;48.796;9.210;2022-11-20T14:59:31;95926.00;;;14.70
18704;BMP180;9481;48.796;9.210;2022-11-20T15:02:04;95920.00;;;14.70
18704;BMP180;9481;48.796;9.210;2022-11-20T15:04:30;95909.00;;;14.70
18704;BMP180;9481;48.796;9.210;2022-11-20T15:06:58;95922.00;;;14.70
18704;BMP180;9481;48.796;9.210;2022-11-20T15:09:24;95909.00;;;14.70
18704;BMP180;9481;48.796;9.210;2022-11-20T15:12:03;95921.00;;;14.60
18704;BMP180;9481;48.796;9.210;2022-11-20T15:14:31;95927.00;;;14.60
18704;BMP180;9481;48.796;9.210;2022-11-20T15:16:59;95913.00;;;14.60
18704;BMP180;9481;48.796;9.210;2022-11-20T15:19:26;95919.00;;;14.60
18704;BMP180;9481;48.796;9.210;2022-11-20T15:21:52;95905.00;;;14.50
18704;BMP180;9481;48.796;9.210;2022-11-20T15:24:18;95905.00;;;14.50
18704;BMP180;9481;48.796;9.210;2022-11-20T15:26:44;95899.00;;;14.40
18704;BMP180;9481;48.796;9.210;2022-11-20T15:29:12;95914.00;;;14.40
18704;BMP180;9481;48.796;9.210;2022-11-20T15:31:39;95911.00;;;14.30
18704;BMP180;9481;48.796;9.210;2022-11-20T15:34:16;95887.00;;;14.30
18704;BMP180;9481;48.796;9.210;2022-11-20T15:36:43;95909.00;;;14.30
18704;BMP180;9481;48.796;9.210;2022-11-20T15:39:09;95897.00;;;14.20
18704;BMP180;9481;48.796;9.210;2022-11-20T15:41:37;95908.00;;;14.20
18704;BMP180;9481;48.796;9.210;2022-11-20T15:44:04;95905.00;;;14.20
18704;BMP180;9481;48.796;9.210;2022-11-20T15:46:38;95911.00;;;14.20
18704;BMP180;9481;48.796;9.210;2022-11-20T15:49:06;95885.00;;;14.20
18704;BMP180;9481;48.796;9.210;2022-11-20T15:51:41;95879.00;;;14.20